createdAt,value
2019-05-19T00:04:59.845Z,3.57
2019-05-19T00:10:05.422Z,3.20
2019-05-19T00:15:11.265Z,2.67
2019-05-19T00:20:15.987Z,4.47
2019-05-19T00:25:21.933Z,3.70
2019-05-19T00:30:26.451Z,3.60
2019-05-19T00:35:31.400Z,2.57
2019-05-19T00:40:35.983Z,7.37
2019-05-19T00:45:41.896Z,4.73
2019-05-19T00:50:46.427Z,3.40
2019-05-19T00:55:52.506Z,2.97
2019-05-19T01:00:57.021Z,3.33
2019-05-19T01:06:02.635Z,2.70
2019-05-19T01:11:07.154Z,3.50
2019-05-19T01:16:13.142Z,2.97
2019-05-19T01:21:17.723Z,3.27
2019-05-19T01:26:22.336Z,4.63
2019-05-19T01:31:26.879Z,2.67
2019-05-19T01:36:31.532Z,2.93
2019-05-19T01:41:36.055Z,2.97
2019-05-19T01:46:40.743Z,2.93
2019-05-19T01:51:45.270Z,3.50
2019-05-19T01:56:50.193Z,3.07
2019-05-19T02:01:54.730Z,3.00
2019-05-19T02:06:59.817Z,5.63
2019-05-19T02:12:23.605Z,3.33
2019-05-19T02:17:29.011Z,6.37
2019-05-19T02:22:33.585Z,2.80
2019-05-19T02:27:38.102Z,4.53
2019-05-19T02:32:42.617Z,3.53
2019-05-19T02:37:47.158Z,3.73
2019-05-19T02:42:51.702Z,2.73
2019-05-19T02:47:56.277Z,9.93
2019-05-19T02:53:00.802Z,2.70
2019-05-19T02:58:05.313Z,2.87
2019-05-19T03:03:09.899Z,3.50
2019-05-19T03:08:14.702Z,2.63
2019-05-19T03:13:19.254Z,2.50
2019-05-19T03:18:24.889Z,3.00
2019-05-19T03:23:29.839Z,4.13
2019-05-19T03:28:34.334Z,2.60
2019-05-19T03:33:40.871Z,4.00
2019-05-19T03:38:45.391Z,7.57
2019-05-19T03:43:49.933Z,3.00
2019-05-19T03:48:54.517Z,3.57
2019-05-19T03:53:59.033Z,2.83
2019-05-19T03:59:03.629Z,3.57
2019-05-19T04:04:08.192Z,4.33
2019-05-19T04:09:12.769Z,6.93
2019-05-19T04:14:17.278Z,5.10
2019-05-19T04:19:21.830Z,3.27
2019-05-19T04:24:26.363Z,5.90
2019-05-19T04:29:30.914Z,4.50
2019-05-19T04:34:35.435Z,4.00
2019-05-19T04:39:39.961Z,4.37
2019-05-19T04:44:44.486Z,6.13
2019-05-19T04:49:48.992Z,4.10
2019-05-19T04:54:53.598Z,4.30
2019-05-19T04:59:58.113Z,5.10
2019-05-19T05:05:02.668Z,4.43
2019-05-19T05:10:07.213Z,5.50
2019-05-19T05:15:11.727Z,5.87
2019-05-19T05:20:16.293Z,5.80
2019-05-19T05:25:20.847Z,6.43
2019-05-19T05:30:25.353Z,4.90
2019-05-19T05:35:29.918Z,8.60
2019-05-19T05:40:34.475Z,9.27
2019-05-19T05:45:40.125Z,7.07
2019-05-19T05:50:45.599Z,7.07
2019-05-19T05:55:50.225Z,7.83
2019-05-19T06:00:54.749Z,8.07
2019-05-19T06:06:01.763Z,9.70
2019-05-19T06:11:06.309Z,9.37
2019-05-19T06:16:10.874Z,8.07
2019-05-19T06:21:15.442Z,10.23
2019-05-19T06:26:20.048Z,8.17
2019-05-19T06:31:24.656Z,13.40
2019-05-19T06:36:29.230Z,11.10
2019-05-19T06:41:33.755Z,10.97
2019-05-19T06:46:39.536Z,11.93
2019-05-19T06:51:44.106Z,12.33
2019-05-19T06:56:48.714Z,14.47
2019-05-19T07:01:53.240Z,9.97
2019-05-19T07:06:59.404Z,11.73
2019-05-19T07:12:04.014Z,19.37
2019-05-19T07:17:09.683Z,13.03
2019-05-19T07:22:14.254Z,18.17
2019-05-19T07:27:20.160Z,14.83
2019-05-19T07:32:24.702Z,14.07
2019-05-19T07:37:30.361Z,14.43
2019-05-19T07:42:34.901Z,14.97
2019-05-19T07:47:40.741Z,12.80
2019-05-19T07:52:45.275Z,14.00
2019-05-19T07:57:51.091Z,18.37
2019-05-19T08:02:55.642Z,18.40
2019-05-19T08:08:01.601Z,16.50
2019-05-19T08:13:06.158Z,14.27
2019-05-19T08:18:11.835Z,15.30
2019-05-19T08:23:16.472Z,16.60
2019-05-19T08:28:22.527Z,14.73
2019-05-19T08:33:27.074Z,10.53
2019-05-19T08:38:32.614Z,11.53
2019-05-19T08:43:37.194Z,14.13
2019-05-19T08:48:43.073Z,14.60
2019-05-19T08:53:47.602Z,15.30
2019-05-19T08:58:53.269Z,15.17
2019-05-19T09:03:58.265Z,12.30
2019-05-19T09:09:05.244Z,16.37
2019-05-19T09:14:09.760Z,14.10
2019-05-19T09:19:15.146Z,12.00
2019-05-19T09:24:30.199Z,15.53
2019-05-19T09:29:26.963Z,16.63
2019-05-19T09:34:31.504Z,11.97
2019-05-19T09:39:36.580Z,12.00
2019-05-19T09:44:41.096Z,13.40
2019-05-19T09:49:47.085Z,10.60
2019-05-19T09:54:51.604Z,11.70
2019-05-19T09:59:57.478Z,10.63
2019-05-19T10:05:02.084Z,11.40
2019-05-19T10:10:09.941Z,9.77
2019-05-19T10:15:14.664Z,11.03
2019-05-19T10:20:20.074Z,8.20
2019-05-19T10:25:24.814Z,9.17
2019-05-19T10:30:30.669Z,9.03
2019-05-19T10:35:35.270Z,9.53
2019-05-19T10:40:41.461Z,9.17
2019-05-19T10:45:47.729Z,8.83
2019-05-19T10:50:53.333Z,9.33
2019-05-19T10:55:57.860Z,8.50
2019-05-19T11:01:03.563Z,9.63
2019-05-19T11:06:08.147Z,7.17
2019-05-19T11:11:15.088Z,7.13
2019-05-19T11:16:19.616Z,8.90
2019-05-19T11:21:24.306Z,9.40
2019-05-19T11:26:28.825Z,8.77
2019-05-19T11:31:33.457Z,7.77
2019-05-19T11:36:37.961Z,7.40
2019-05-19T11:41:42.982Z,8.33
2019-05-19T11:46:47.532Z,6.20
2019-05-19T11:51:53.569Z,6.27
2019-05-19T11:56:58.076Z,5.80
2019-05-19T12:02:03.944Z,6.93
2019-05-19T12:07:08.484Z,9.90
2019-05-19T12:12:14.282Z,8.03
2019-05-19T12:17:18.789Z,6.30
2019-05-19T12:22:24.507Z,7.20
2019-05-19T12:27:29.021Z,7.17
2019-05-19T12:32:35.154Z,5.77
2019-05-19T12:37:39.673Z,5.33
2019-05-19T12:42:44.469Z,8.20
2019-05-19T12:47:48.984Z,5.73
2019-05-19T12:52:55.021Z,6.60
2019-05-19T12:57:59.538Z,6.30
2019-05-19T13:03:05.570Z,6.60
2019-05-19T13:08:11.600Z,6.23
2019-05-19T13:13:18.003Z,6.13
2019-05-19T13:18:22.531Z,5.20
2019-05-19T13:23:27.530Z,7.17
2019-05-19T13:28:32.042Z,8.67
2019-05-19T13:33:37.691Z,8.30
2019-05-19T13:38:42.242Z,7.07
2019-05-19T13:43:48.204Z,6.83
2019-05-19T13:48:52.710Z,8.00
2019-05-19T13:53:58.533Z,8.23
2019-05-19T13:59:04.033Z,7.03
2019-05-19T14:04:09.762Z,7.73
2019-05-19T14:09:15.313Z,9.93
2019-05-19T14:14:21.383Z,8.73
2019-05-19T14:19:26.120Z,7.97
2019-05-19T14:24:31.626Z,7.90
2019-05-19T14:29:36.145Z,7.13
2019-05-19T14:34:41.533Z,6.00
2019-05-19T14:39:46.214Z,7.30
2019-05-19T14:44:51.960Z,7.03
2019-05-19T14:49:56.477Z,7.17
2019-05-19T14:55:01.843Z,7.30
2019-05-19T15:00:06.541Z,7.23
2019-05-19T15:05:12.151Z,7.73
2019-05-19T15:10:18.069Z,10.63
2019-05-19T15:15:23.574Z,8.83
2019-05-19T15:20:28.121Z,8.10
2019-05-19T15:25:33.289Z,9.27
2019-05-19T15:30:37.820Z,15.07
2019-05-19T15:35:42.353Z,9.67
2019-05-19T15:40:47.861Z,7.37
2019-05-19T15:45:53.093Z,9.20
2019-05-19T15:50:57.602Z,8.40
2019-05-19T15:56:02.370Z,8.47
2019-05-19T16:01:08.125Z,6.87
2019-05-19T16:06:13.615Z,8.03
2019-05-19T16:11:18.142Z,6.43
2019-05-19T16:16:22.701Z,7.20
2019-05-19T16:21:27.227Z,6.67
2019-05-19T16:26:32.674Z,6.70
2019-05-19T16:31:38.176Z,6.00
2019-05-19T16:36:42.686Z,6.53
2019-05-19T16:41:47.337Z,6.77
2019-05-19T16:46:52.598Z,7.57
2019-05-19T16:51:57.178Z,11.07
2019-05-19T16:57:02.391Z,7.37
2019-05-19T17:02:06.986Z,7.00
2019-05-19T17:07:12.374Z,6.43
2019-05-19T17:12:16.967Z,6.30
2019-05-19T17:17:21.589Z,5.07
2019-05-19T17:22:26.141Z,6.70
2019-05-19T17:27:31.061Z,7.93
2019-05-19T17:32:35.593Z,6.87
2019-05-19T17:37:42.137Z,5.70
2019-05-19T17:42:46.781Z,5.17
2019-05-19T17:47:53.375Z,5.33
2019-05-19T17:52:57.802Z,6.67
2019-05-19T17:58:03.345Z,6.00
2019-05-19T18:03:08.935Z,5.20
2019-05-19T18:08:13.849Z,5.03
2019-05-19T18:13:20.031Z,4.20
2019-05-19T18:18:24.582Z,7.60
2019-05-19T18:23:30.136Z,7.17
2019-05-19T18:28:35.386Z,6.80
2019-05-19T18:33:39.927Z,6.03
2019-05-19T18:38:44.473Z,4.97
2019-05-19T18:43:48.995Z,5.17
2019-05-19T18:48:54.285Z,6.50
2019-05-19T18:53:58.804Z,5.47
2019-05-19T18:59:04.379Z,5.50
2019-05-19T19:04:09.018Z,3.70
2019-05-19T19:09:13.605Z,4.77
2019-05-19T19:14:18.130Z,5.30
2019-05-19T19:19:22.659Z,3.93
2019-05-19T19:24:27.884Z,8.47
2019-05-19T19:29:32.401Z,4.83
2019-05-19T19:34:36.949Z,5.40
2019-05-19T19:39:41.545Z,6.50
2019-05-19T19:44:46.102Z,5.87
2019-05-19T19:49:50.632Z,5.67
2019-05-19T19:54:55.146Z,5.53
2019-05-19T19:59:59.675Z,4.20
2019-05-19T20:05:04.206Z,5.20
2019-05-19T20:10:08.728Z,7.10
2019-05-19T20:15:14.765Z,6.50
2019-05-19T20:20:19.283Z,5.27
2019-05-19T20:25:23.796Z,7.63
2019-05-19T20:30:35.553Z,6.67
2019-05-19T20:35:34.533Z,8.27
2019-05-19T20:40:39.712Z,7.63
2019-05-19T20:45:44.358Z,8.07
2019-05-19T20:50:48.880Z,10.73
2019-05-19T20:55:53.401Z,5.23
2019-05-19T21:00:57.926Z,6.77
2019-05-19T21:06:02.451Z,7.40
2019-05-19T21:11:06.979Z,5.93
2019-05-19T21:16:12.905Z,7.27
2019-05-19T21:21:31.544Z,5.90
2019-05-19T21:26:36.977Z,6.80
2019-05-19T21:31:41.569Z,5.87
2019-05-19T21:36:47.166Z,7.50
2019-05-19T21:41:51.716Z,5.20
2019-05-19T21:46:56.762Z,11.70
2019-05-19T21:52:01.281Z,7.03
2019-05-19T21:57:06.450Z,8.13
2019-05-19T22:02:12.106Z,5.80
2019-05-19T22:07:25.301Z,7.60
2019-05-19T22:12:30.908Z,7.17
2019-05-19T22:17:35.442Z,6.10
2019-05-19T22:22:41.227Z,5.77
2019-05-19T22:27:45.727Z,6.53
2019-05-19T22:32:51.011Z,5.73
2019-05-19T22:37:55.527Z,7.13
2019-05-19T22:43:01.129Z,6.70
2019-05-19T22:48:05.658Z,5.70
2019-05-19T22:53:10.846Z,7.73
2019-05-19T22:58:15.362Z,6.93
2019-05-19T23:03:20.649Z,7.27
2019-05-19T23:08:25.178Z,5.47
2019-05-19T23:13:29.769Z,5.97
2019-05-19T23:18:34.374Z,6.83
2019-05-19T23:23:39.401Z,6.33
2019-05-19T23:28:43.910Z,9.33
2019-05-19T23:33:48.802Z,6.40
2019-05-19T23:38:53.358Z,5.73
2019-05-19T23:43:59.501Z,7.40
2019-05-19T23:49:04.102Z,5.97
2019-05-19T23:54:08.702Z,5.70
2019-05-19T23:59:13.217Z,7.47
